Callao, Utah
Current Conditions -  °F | °C
As of 4:55 AM on Saturday 22 Nov 2014 (Local Time) from KENV Reporting Station
Clear Clear  
Wind Chill: 23°   Ceiling: Unl
Heat Index: 30°   Visibility: 10mi
Dew Point: 21°   Wind: 7mph
Humidity: 69%   Direction: 80°E
Pressure: 29.91"   Gusts: NA
Location:  40.0375°N, 113.984°W
Report Text: KENV 221155Z AUTO 08006KT 10SM CLR M01/M06 A2991 RMK AO1 10010 21020 57020
Loading
Personal Weather Stations






























Interactive Weather Map New forecast layout! Learn more

10-Day Weather Forecast

Advertisements
Track Severe Weather on mobile